Time;durP1;ratioP1;P1;durP2;ratioP2;P2;SDS_P1;SDS_P2;PMS_P1;PMS_P2;Temp;Humidity;BMP_temperature;BMP_pressure;BME280_temperature;BME280_humidity;BME280_pressure;Samples;Min_cycle;Max_cycle;Signal;HPM_P1;HPM_P2
2022/12/24 00:01:47;;;;;;;14.45;7.25;;;;;;;;;;6037748;23;20467;-85
2022/12/24 00:04:13;;;;;;;14.23;6.63;;;;;;;;;;6038425;23;20062;-87
2022/12/24 00:06:38;;;;;;;13.15;6.30;;;;;;;;;;6037082;23;20018;-86
2022/12/24 00:09:04;;;;;;;14.40;6.80;;;;;;;;;;6061821;23;20022;-87
2022/12/24 00:11:29;;;;;;;13.30;6.53;;;;;;;;;;6036436;23;20015;-86
2022/12/24 00:13:55;;;;;;;16.92;6.68;;;;;;;;;;6038746;23;20026;-85
2022/12/24 00:16:20;;;;;;;12.20;6.50;;;;;;;;;;6061279;23;20040;-85
2022/12/24 00:18:45;;;;;;;14.80;7.15;;;;;;;;;;6025270;23;20050;-85
2022/12/24 00:21:11;;;;;;;13.02;6.80;;;;;;;;;;6037251;23;20010;-85
2022/12/24 00:23:36;;;;;;;10.25;5.65;;;;;;;;;;6038246;23;20061;-86
2022/12/24 00:26:02;;;;;;;12.38;6.68;;;;;;;;;;6037706;23;20466;-87
2022/12/24 00:28:27;;;;;;;13.05;6.28;;;;;;;;;;6061672;23;20022;-86
2022/12/24 00:30:53;;;;;;;11.68;5.65;;;;;;;;;;6062191;23;20533;-86
2022/12/24 00:33:18;;;;;;;11.98;5.68;;;;;;;;;;6061793;23;20041;-86
2022/12/24 00:35:43;;;;;;;12.57;5.60;;;;;;;;;;6037618;23;20059;-86
2022/12/24 00:38:09;;;;;;;12.85;6.22;;;;;;;;;;6038358;23;20029;-87
2022/12/24 00:40:36;;;;;;;10.50;5.35;;;;;;;;;;6037191;23;20026;-85
2022/12/24 00:43:01;;;;;;;13.77;5.33;;;;;;;;;;6038490;23;20015;-86
2022/12/24 00:45:27;;;;;;;10.68;5.35;;;;;;;;;;6036065;23;20250;-85
2022/12/24 00:47:52;;;;;;;10.35;5.38;;;;;;;;;;6039416;23;20018;-87
2022/12/24 00:50:18;;;;;;;10.05;5.13;;;;;;;;;;6037660;23;20014;-85
2022/12/24 00:52:43;;;;;;;9.93;5.05;;;;;;;;;;6038080;23;20077;-85
2022/12/24 00:55:09;;;;;;;10.05;5.28;;;;;;;;;;6062201;23;20370;-85
2022/12/24 00:57:34;;;;;;;12.10;5.78;;;;;;;;;;6060460;23;20027;-85
2022/12/24 00:59:59;;;;;;;11.13;5.93;;;;;;;;;;6062388;23;20037;-86
2022/12/24 01:02:25;;;;;;;9.32;5.07;;;;;;;;;;6036421;23;20014;-85
2022/12/24 01:05:09;;;;;;;10.65;5.68;;;;;;;;;;6039385;23;20022;-85
2022/12/24 01:07:35;;;;;;;10.90;5.45;;;;;;;;;;6040821;23;20070;-86
2022/12/24 01:10:01;;;;;;;9.88;5.85;;;;;;;;;;6061991;23;20010;-86
2022/12/24 01:12:26;;;;;;;9.18;4.97;;;;;;;;;;6036070;23;20382;-86
2022/12/24 01:14:52;;;;;;;11.35;5.97;;;;;;;;;;6062320;23;20426;-86
2022/12/24 01:17:17;;;;;;;10.93;5.20;;;;;;;;;;6036762;23;20387;-86
2022/12/24 01:19:43;;;;;;;12.50;5.93;;;;;;;;;;6010657;23;20102;-85
2022/12/24 01:22:08;;;;;;;10.52;5.10;;;;;;;;;;6032611;23;20635;-87
2022/12/24 01:24:34;;;;;;;8.60;4.60;;;;;;;;;;6009882;23;20085;-85
2022/12/24 01:26:59;;;;;;;10.13;5.25;;;;;;;;;;6008631;23;20026;-85
2022/12/24 01:29:25;;;;;;;10.75;5.32;;;;;;;;;;6009628;23;20514;-83
2022/12/24 01:31:50;;;;;;;11.07;5.60;;;;;;;;;;6008586;23;20023;-84
2022/12/24 01:34:15;;;;;;;9.43;4.70;;;;;;;;;;6032472;23;20099;-84
2022/12/24 01:36:41;;;;;;;10.57;5.38;;;;;;;;;;6008200;23;20038;-85
2022/12/24 01:39:06;;;;;;;11.70;5.55;;;;;;;;;;6032655;23;20507;-85
2022/12/24 01:44:19;;;;;;;11.55;5.53;;;;;;;;;;6037063;23;20135;-86
2022/12/24 01:46:45;;;;;;;9.88;4.90;;;;;;;;;;6032102;23;20023;-84
2022/12/24 01:49:13;;;;;;;11.20;5.03;;;;;;;;;;6009364;23;20030;-84
2022/12/24 01:51:45;;;;;;;10.00;5.32;;;;;;;;;;6032089;23;20090;-85
2022/12/24 01:54:33;;;;;;;12.80;6.18;;;;;;;;;;6035237;23;20021;-85
2022/12/24 01:57:11;;;;;;;9.80;5.30;;;;;;;;;;6032760;23;20041;-84
2022/12/24 01:59:37;;;;;;;9.88;5.10;;;;;;;;;;6034083;23;20034;-85
2022/12/24 02:02:03;;;;;;;11.95;6.10;;;;;;;;;;6009418;23;20015;-85
2022/12/24 02:04:50;;;;;;;10.45;5.07;;;;;;;;;;6011547;23;20340;-84
2022/12/24 02:07:15;;;;;;;11.77;5.78;;;;;;;;;;6033136;23;20042;-84
2022/12/24 02:09:41;;;;;;;10.20;5.25;;;;;;;;;;6035039;23;20023;-86
2022/12/24 02:12:07;;;;;;;10.75;5.38;;;;;;;;;;6059092;23;20400;-86
2022/12/24 02:14:33;;;;;;;11.55;5.90;;;;;;;;;;6010590;23;20027;-86
2022/12/24 02:17:25;;;;;;;12.65;5.72;;;;;;;;;;6009598;23;20070;-84
2022/12/24 02:19:56;;;;;;;10.40;5.35;;;;;;;;;;6010824;23;20027;-85
2022/12/24 02:22:27;;;;;;;12.68;6.43;;;;;;;;;;6058672;23;20014;-86
2022/12/24 02:25:11;;;;;;;13.73;6.47;;;;;;;;;;6034197;23;20072;-86
2022/12/24 02:27:55;;;;;;;13.27;6.30;;;;;;;;;;6033489;23;20029;-85
2022/12/24 02:30:30;;;;;;;13.85;6.10;;;;;;;;;;6057261;23;20011;-86
2022/12/24 02:33:19;;;;;;;14.45;6.40;;;;;;;;;;6010420;23;20017;-85
2022/12/24 02:36:01;;;;;;;15.38;5.82;;;;;;;;;;6009846;23;20018;-84
2022/12/24 02:38:34;;;;;;;13.27;6.15;;;;;;;;;;6057327;23;20076;-85
2022/12/24 02:41:03;;;;;;;14.13;6.32;;;;;;;;;;6010088;23;20071;-85
2022/12/24 02:43:34;;;;;;;14.00;6.90;;;;;;;;;;6010979;23;20018;-86
2022/12/24 02:46:04;;;;;;;12.50;6.40;;;;;;;;;;6033711;23;20343;-84
2022/12/24 02:48:33;;;;;;;13.93;6.70;;;;;;;;;;6011024;23;20022;-85
2022/12/24 02:51:05;;;;;;;13.90;5.80;;;;;;;;;;6034414;23;20046;-84
2022/12/24 02:53:31;;;;;;;11.82;6.40;;;;;;;;;;6010845;23;20046;-84
2022/12/24 02:55:56;;;;;;;12.65;5.82;;;;;;;;;;6009293;23;20623;-85
2022/12/24 02:58:48;;;;;;;15.40;7.47;;;;;;;;;;6060023;23;20022;-85
2022/12/24 03:01:29;;;;;;;15.15;6.72;;;;;;;;;;6024021;23;20019;-83
2022/12/24 03:04:38;;;;;;;15.00;6.72;;;;;;;;;;6010198;23;20130;-86
2022/12/24 03:07:06;;;;;;;13.27;6.60;;;;;;;;;;6033411;23;20042;-87
2022/12/24 03:10:06;;;;;;;12.10;6.45;;;;;;;;;;6034075;23;20029;-84
2022/12/24 03:12:35;;;;;;;13.57;6.72;;;;;;;;;;5973820;23;20045;-86
2022/12/24 03:15:07;;;;;;;13.32;6.53;;;;;;;;;;6010380;23;20094;-86
2022/12/24 03:17:36;;;;;;;16.00;7.00;;;;;;;;;;6009476;23;20022;-85
2022/12/24 03:20:02;;;;;;;14.75;7.15;;;;;;;;;;6010420;23;20027;-87
2022/12/24 03:22:29;;;;;;;17.63;7.53;;;;;;;;;;6033262;23;20030;-84
2022/12/24 03:24:54;;;;;;;14.27;7.10;;;;;;;;;;6010314;23;20037;-85
2022/12/24 03:27:20;;;;;;;14.07;6.57;;;;;;;;;;6033761;23;20011;-84
2022/12/24 03:29:46;;;;;;;13.32;6.80;;;;;;;;;;6010395;23;20083;-83
2022/12/24 03:32:11;;;;;;;15.93;7.43;;;;;;;;;;6032908;23;20010;-83
2022/12/24 03:34:36;;;;;;;13.18;7.13;;;;;;;;;;6010949;23;20048;-85
2022/12/24 03:37:02;;;;;;;13.02;6.93;;;;;;;;;;6008991;23;20038;-84
2022/12/24 03:39:31;;;;;;;14.93;7.22;;;;;;;;;;6010203;23;20033;-84
2022/12/24 03:41:56;;;;;;;14.73;7.47;;;;;;;;;;6009575;23;20011;-84
2022/12/24 03:44:22;;;;;;;12.90;7.10;;;;;;;;;;6010772;23;21039;-85
2022/12/24 03:46:48;;;;;;;15.35;7.13;;;;;;;;;;6009177;23;20102;-85
2022/12/24 03:49:13;;;;;;;14.18;7.00;;;;;;;;;;6010497;23;20023;-85
2022/12/24 03:51:38;;;;;;;16.00;7.60;;;;;;;;;;6033449;23;20025;-86
2022/12/24 03:54:04;;;;;;;14.90;7.20;;;;;;;;;;6010538;23;20388;-85
2022/12/24 03:56:30;;;;;;;13.55;7.30;;;;;;;;;;6007639;23;20015;-85
2022/12/24 03:58:55;;;;;;;13.38;6.95;;;;;;;;;;6032981;23;20034;-86
2022/12/24 04:01:20;;;;;;;16.58;8.00;;;;;;;;;;6009039;23;20090;-85
2022/12/24 04:03:46;;;;;;;16.83;7.28;;;;;;;;;;6009086;23;20018;-84
2022/12/24 04:06:13;;;;;;;14.90;7.53;;;;;;;;;;6007962;23;20026;-84
2022/12/24 04:08:39;;;;;;;15.75;7.50;;;;;;;;;;6033146;23;20114;-84
2022/12/24 04:11:07;;;;;;;15.10;7.30;;;;;;;;;;6009011;23;20122;-85
2022/12/24 04:13:32;;;;;;;13.18;7.55;;;;;;;;;;6009714;23;20083;-86
2022/12/24 04:16:04;;;;;;;15.27;7.90;;;;;;;;;;6009377;23;20018;-84
2022/12/24 04:18:30;;;;;;;16.92;8.23;;;;;;;;;;6032536;23;20392;-85
2022/12/24 04:20:55;;;;;;;16.48;8.57;;;;;;;;;;6009409;23;20066;-85
2022/12/24 04:23:21;;;;;;;14.27;7.13;;;;;;;;;;6034499;23;20015;-85
2022/12/24 04:25:47;;;;;;;16.67;8.38;;;;;;;;;;6009131;23;20018;-84
2022/12/24 04:28:12;;;;;;;17.80;8.35;;;;;;;;;;6033177;23;20467;-84
2022/12/24 04:30:38;;;;;;;16.40;7.68;;;;;;;;;;6033225;23;20440;-85
2022/12/24 04:33:04;;;;;;;17.83;8.10;;;;;;;;;;6009400;23;20090;-84
2022/12/24 04:35:29;;;;;;;14.55;7.47;;;;;;;;;;6032508;23;20029;-84
2022/12/24 04:37:55;;;;;;;15.52;7.90;;;;;;;;;;6033339;23;20014;-85
2022/12/24 04:40:20;;;;;;;16.88;8.13;;;;;;;;;;6032910;23;20011;-85
2022/12/24 04:42:45;;;;;;;15.05;7.65;;;;;;;;;;6009447;23;20018;-85
2022/12/24 04:45:11;;;;;;;15.52;8.05;;;;;;;;;;6009717;23;20026;-84
2022/12/24 04:47:36;;;;;;;17.27;8.38;;;;;;;;;;6008850;23;20019;-85
2022/12/24 04:50:02;;;;;;;17.83;8.82;;;;;;;;;;6009857;23;20095;-84
2022/12/24 04:52:30;;;;;;;15.73;8.10;;;;;;;;;;5997117;23;20098;-85
2022/12/24 04:54:55;;;;;;;16.92;7.75;;;;;;;;;;6032904;23;20014;-85
2022/12/24 04:57:21;;;;;;;15.07;8.07;;;;;;;;;;6033054;23;20033;-85
2022/12/24 04:59:46;;;;;;;15.52;7.82;;;;;;;;;;6009878;23;20384;-85
2022/12/24 05:02:12;;;;;;;16.88;8.52;;;;;;;;;;6008725;23;20428;-85
2022/12/24 05:04:37;;;;;;;18.17;8.70;;;;;;;;;;6009940;23;20030;-85
2022/12/24 05:07:03;;;;;;;17.17;8.15;;;;;;;;;;6032453;23;20022;-87
2022/12/24 05:09:28;;;;;;;16.50;8.60;;;;;;;;;;6008082;23;20014;-85
2022/12/24 05:11:53;;;;;;;16.83;8.70;;;;;;;;;;6032570;23;20335;-86
2022/12/24 05:14:19;;;;;;;18.48;8.93;;;;;;;;;;6033571;23;20017;-84
2022/12/24 05:16:44;;;;;;;17.65;9.20;;;;;;;;;;6008674;23;20467;-85
2022/12/24 05:19:10;;;;;;;19.65;9.13;;;;;;;;;;6009667;23;20089;-84
2022/12/24 05:21:35;;;;;;;18.15;9.43;;;;;;;;;;6008493;23;20079;-86
2022/12/24 05:26:48;;;;;;;19.23;9.88;;;;;;;;;;6035994;23;20025;-87
2022/12/24 05:29:14;;;;;;;19.65;9.68;;;;;;;;;;6011411;23;20023;-86
2022/12/24 05:31:40;;;;;;;18.90;9.45;;;;;;;;;;6033833;23;20041;-86
2022/12/24 05:34:07;;;;;;;17.65;9.10;;;;;;;;;;6010778;23;20499;-86
2022/12/24 05:36:32;;;;;;;16.67;9.13;;;;;;;;;;6010703;23;20026;-86
2022/12/24 05:38:58;;;;;;;17.73;9.23;;;;;;;;;;6010748;23;20011;-84
2022/12/24 05:41:23;;;;;;;19.00;9.38;;;;;;;;;;6011123;23;20047;-84
2022/12/24 05:43:49;;;;;;;19.65;9.30;;;;;;;;;;6011177;23;20070;-85
2022/12/24 05:46:17;;;;;;;21.85;9.98;;;;;;;;;;6009814;23;20018;-85
2022/12/24 05:48:42;;;;;;;15.13;8.10;;;;;;;;;;6011221;23;20433;-84
2022/12/24 05:51:10;;;;;;;20.95;10.27;;;;;;;;;;6010209;23;20014;-84
2022/12/24 05:53:36;;;;;;;15.57;8.82;;;;;;;;;;6034974;23;20023;-85
2022/12/24 05:56:09;;;;;;;20.50;10.00;;;;;;;;;;6009852;23;20030;-85
2022/12/24 05:58:35;;;;;;;17.25;8.75;;;;;;;;;;6011318;23;20015;-84
2022/12/24 06:01:02;;;;;;;18.65;9.05;;;;;;;;;;6009829;23;20010;-85
2022/12/24 06:03:29;;;;;;;18.85;9.10;;;;;;;;;;6010998;23;20090;-85
2022/12/24 06:06:18;;;;;;;19.85;9.38;;;;;;;;;;6033211;23;20339;-86
2022/12/24 06:08:43;;;;;;;19.77;8.98;;;;;;;;;;6011824;23;20459;-85
2022/12/24 06:11:11;;;;;;;20.05;9.88;;;;;;;;;;6031449;23;20074;-84
2022/12/24 06:13:38;;;;;;;18.77;8.85;;;;;;;;;;6010856;23;20034;-86
2022/12/24 06:16:06;;;;;;;20.40;8.82;;;;;;;;;;6033279;23;20970;-84
2022/12/24 06:18:33;;;;;;;22.05;9.65;;;;;;;;;;6027045;23;20078;-83
2022/12/24 06:20:59;;;;;;;18.73;9.53;;;;;;;;;;6033457;23;20019;-86
2022/12/24 06:23:25;;;;;;;17.70;8.65;;;;;;;;;;6032670;23;20120;-84
2022/12/24 06:25:51;;;;;;;19.35;9.27;;;;;;;;;;6034545;23;20034;-84
2022/12/24 06:28:17;;;;;;;21.80;8.88;;;;;;;;;;6033626;23;20022;-84
2022/12/24 06:30:47;;;;;;;21.05;9.60;;;;;;;;;;6008823;23;20422;-83
2022/12/24 06:33:13;;;;;;;17.38;8.52;;;;;;;;;;6033149;23;20015;-84
2022/12/24 06:35:40;;;;;;;18.90;8.57;;;;;;;;;;6032949;23;20085;-85
2022/12/24 06:38:06;;;;;;;18.53;8.60;;;;;;;;;;6031650;23;20006;-86
2022/12/24 06:40:31;;;;;;;19.77;9.07;;;;;;;;;;6009529;23;20253;-84
2022/12/24 06:42:57;;;;;;;18.67;8.27;;;;;;;;;;6011803;23;20733;-83
2022/12/24 06:45:23;;;;;;;20.73;9.45;;;;;;;;;;6033458;23;20353;-84
2022/12/24 06:47:49;;;;;;;20.05;9.18;;;;;;;;;;6033333;23;20015;-85
2022/12/24 06:50:14;;;;;;;22.27;9.32;;;;;;;;;;6032118;23;20090;-85
2022/12/24 06:52:40;;;;;;;21.25;8.35;;;;;;;;;;6033392;23;20023;-85
2022/12/24 06:55:06;;;;;;;19.58;9.32;;;;;;;;;;6034216;23;20061;-84
2022/12/24 06:57:32;;;;;;;21.15;8.70;;;;;;;;;;6008813;23;20023;-85
2022/12/24 06:59:57;;;;;;;18.80;9.10;;;;;;;;;;6009865;23;20408;-85
2022/12/24 07:02:23;;;;;;;19.25;8.88;;;;;;;;;;6009521;23;20078;-85
2022/12/24 07:04:49;;;;;;;19.67;8.88;;;;;;;;;;6032456;23;20151;-85
2022/12/24 07:07:15;;;;;;;20.77;9.50;;;;;;;;;;6031824;23;20018;-86
2022/12/24 07:09:40;;;;;;;20.17;8.75;;;;;;;;;;6009071;23;20018;-86
2022/12/24 07:12:06;;;;;;;24.10;10.05;;;;;;;;;;6031885;23;20035;-85
2022/12/24 07:14:31;;;;;;;19.63;9.32;;;;;;;;;;6032404;23;20141;-86
2022/12/24 07:16:57;;;;;;;20.60;8.82;;;;;;;;;;6032477;23;20010;-85
2022/12/24 07:19:22;;;;;;;19.15;9.30;;;;;;;;;;6076458;23;20094;-87
2022/12/24 07:21:48;;;;;;;21.48;9.98;;;;;;;;;;6009375;23;20352;-85
2022/12/24 07:24:14;;;;;;;23.80;10.40;;;;;;;;;;6010325;23;20026;-86
2022/12/24 07:26:40;;;;;;;21.33;10.10;;;;;;;;;;6032833;23;20486;-86
2022/12/24 07:29:05;;;;;;;27.75;10.23;;;;;;;;;;6010387;23;20403;-86
2022/12/24 07:31:30;;;;;;;19.65;9.75;;;;;;;;;;6009390;23;20027;-86
2022/12/24 07:33:56;;;;;;;21.27;9.23;;;;;;;;;;6034672;23;20070;-86
2022/12/24 07:36:22;;;;;;;21.60;9.45;;;;;;;;;;6010160;23;20371;-86
2022/12/24 07:38:47;;;;;;;20.17;8.90;;;;;;;;;;6010096;23;20090;-85
2022/12/24 07:41:13;;;;;;;20.25;9.98;;;;;;;;;;6032441;23;20023;-83
2022/12/24 07:43:39;;;;;;;21.85;10.00;;;;;;;;;;6033397;23;20037;-84
2022/12/24 07:46:04;;;;;;;21.30;9.82;;;;;;;;;;6009224;23;20022;-85
2022/12/24 07:48:31;;;;;;;20.10;9.38;;;;;;;;;;6033425;23;20046;-86
2022/12/24 07:50:57;;;;;;;21.17;9.70;;;;;;;;;;6032955;23;20339;-83
2022/12/24 07:53:24;;;;;;;20.33;8.80;;;;;;;;;;6010094;23;20027;-83
2022/12/24 07:55:50;;;;;;;20.48;9.80;;;;;;;;;;6009577;23;20388;-83
2022/12/24 07:58:15;;;;;;;22.10;9.90;;;;;;;;;;6009962;23;20038;-83
2022/12/24 08:00:41;;;;;;;25.70;10.75;;;;;;;;;;6033985;23;20023;-83
2022/12/24 08:03:06;;;;;;;26.80;12.23;;;;;;;;;;6010798;23;20011;-83
2022/12/24 08:05:34;;;;;;;26.85;11.55;;;;;;;;;;6010475;23;20034;-83
2022/12/24 08:07:59;;;;;;;24.45;10.55;;;;;;;;;;6009942;23;20526;-82
2022/12/24 08:10:24;;;;;;;23.92;9.18;;;;;;;;;;6009317;23;20082;-85
2022/12/24 08:12:50;;;;;;;23.40;9.60;;;;;;;;;;6010777;23;20380;-83
2022/12/24 08:15:16;;;;;;;25.95;10.55;;;;;;;;;;6010120;23;20018;-85
2022/12/24 08:17:41;;;;;;;24.88;10.70;;;;;;;;;;6008920;23;20110;-85
2022/12/24 08:20:07;;;;;;;26.02;10.93;;;;;;;;;;6009526;23;20023;-84
2022/12/24 08:22:32;;;;;;;21.70;9.43;;;;;;;;;;6010050;23;20438;-84
2022/12/24 08:24:58;;;;;;;21.80;9.57;;;;;;;;;;6009362;23;20029;-82
2022/12/24 08:27:23;;;;;;;24.33;10.23;;;;;;;;;;6032162;23;20396;-83
2022/12/24 08:29:58;;;;;;;21.90;9.95;;;;;;;;;;5986721;23;20454;-87
2022/12/24 08:32:26;;;;;;;24.15;9.77;;;;;;;;;;5960821;23;20030;-86
2022/12/24 08:35:08;;;;;;;38.05;14.68;;;;;;;;;;5972315;23;20018;-86
2022/12/24 08:37:34;;;;;;;42.17;17.90;;;;;;;;;;5977927;23;20022;-85
2022/12/24 08:40:08;;;;;;;28.13;11.95;;;;;;;;;;6019414;23;20026;-85
2022/12/24 08:42:41;;;;;;;22.85;10.13;;;;;;;;;;5993217;23;20158;-86
2022/12/24 08:45:10;;;;;;;23.08;10.88;;;;;;;;;;6006666;23;20042;-85
2022/12/24 08:47:38;;;;;;;24.15;9.77;;;;;;;;;;5993987;23;20023;-85
2022/12/24 08:50:08;;;;;;;24.33;10.32;;;;;;;;;;5986427;23;20023;-86
2022/12/24 08:52:42;;;;;;;24.20;10.48;;;;;;;;;;5987321;23;20027;-85
2022/12/24 08:55:13;;;;;;;22.70;9.73;;;;;;;;;;5976342;23;20015;-87
2022/12/24 08:57:39;;;;;;;21.38;10.15;;;;;;;;;;5995170;23;20023;-82
2022/12/24 09:00:05;;;;;;;22.90;9.85;;;;;;;;;;6033005;23;20075;-82
2022/12/24 09:02:31;;;;;;;23.40;9.90;;;;;;;;;;6008940;23;20459;-82
2022/12/24 09:04:56;;;;;;;22.77;9.77;;;;;;;;;;6010306;23;20019;-82
2022/12/24 09:07:21;;;;;;;22.80;10.27;;;;;;;;;;6033964;23;20014;-81
2022/12/24 09:09:47;;;;;;;22.08;9.45;;;;;;;;;;6033693;23;20025;-83
2022/12/24 09:12:12;;;;;;;22.25;10.10;;;;;;;;;;5982259;23;20479;-84
2022/12/24 09:14:38;;;;;;;17.98;8.05;;;;;;;;;;6033912;23;20046;-81
2022/12/24 09:17:05;;;;;;;21.15;9.35;;;;;;;;;;6010519;23;20098;-83
2022/12/24 09:19:30;;;;;;;19.75;9.25;;;;;;;;;;6061080;23;20413;-82
2022/12/24 09:21:55;;;;;;;22.02;10.23;;;;;;;;;;6026088;23;20029;-82
2022/12/24 09:24:21;;;;;;;20.42;10.25;;;;;;;;;;6038750;23;20339;-82
2022/12/24 09:26:49;;;;;;;21.27;9.77;;;;;;;;;;6035778;23;20010;-82
2022/12/24 09:29:20;;;;;;;18.65;9.40;;;;;;;;;;6036796;23;20098;-83
2022/12/24 09:31:46;;;;;;;17.67;8.73;;;;;;;;;;6026359;23;20089;-83
2022/12/24 09:34:11;;;;;;;18.10;9.25;;;;;;;;;;6023947;23;20045;-83
2022/12/24 09:36:37;;;;;;;18.10;8.93;;;;;;;;;;6036444;23;20015;-84
2022/12/24 09:39:02;;;;;;;16.27;8.10;;;;;;;;;;6061224;23;20018;-84
2022/12/24 09:41:34;;;;;;;16.10;7.57;;;;;;;;;;6036935;23;20026;-82
2022/12/24 09:44:38;;;;;;;16.38;8.27;;;;;;;;;;6062562;23;20070;-83
2022/12/24 09:47:28;;;;;;;16.30;7.63;;;;;;;;;;6060796;23;20027;-82
2022/12/24 09:49:59;;;;;;;15.68;8.52;;;;;;;;;;6062020;23;20415;-82
2022/12/24 09:52:39;;;;;;;15.20;7.88;;;;;;;;;;6037342;23;20022;-81
2022/12/24 09:55:47;;;;;;;14.45;8.38;;;;;;;;;;6038509;23;20011;-82
2022/12/24 09:58:21;;;;;;;15.02;7.80;;;;;;;;;;6037753;23;20485;-83
2022/12/24 10:00:47;;;;;;;16.70;8.27;;;;;;;;;;6037036;23;20415;-83
2022/12/24 10:03:14;;;;;;;15.18;7.38;;;;;;;;;;6037530;23;20089;-83
2022/12/24 10:05:50;;;;;;;17.05;8.60;;;;;;;;;;6037857;23;20018;-81
2022/12/24 10:08:21;;;;;;;13.82;7.43;;;;;;;;;;6037775;23;20034;-82
2022/12/24 10:10:54;;;;;;;13.30;7.50;;;;;;;;;;6087457;23;20451;-82
2022/12/24 10:13:38;;;;;;;12.18;6.80;;;;;;;;;;6062531;23;20077;-83
2022/12/24 10:16:09;;;;;;;13.38;7.40;;;;;;;;;;6063116;23;20493;-83
2022/12/24 10:19:00;;;;;;;13.05;6.63;;;;;;;;;;6062733;23;20077;-81
2022/12/24 10:21:43;;;;;;;13.02;6.70;;;;;;;;;;6062248;23;20366;-83
2022/12/24 10:24:14;;;;;;;11.38;7.00;;;;;;;;;;6063543;23;20400;-81
2022/12/24 10:27:02;;;;;;;12.63;6.65;;;;;;;;;;6062315;23;20439;-82
2022/12/24 10:29:33;;;;;;;14.30;6.53;;;;;;;;;;6039889;23;20044;-82
2022/12/24 10:32:16;;;;;;;12.10;6.43;;;;;;;;;;6038362;23;20029;-82
2022/12/24 10:35:12;;;;;;;10.55;5.57;;;;;;;;;;6090276;23;20396;-84
2022/12/24 10:37:37;;;;;;;10.27;5.80;;;;;;;;;;6056482;23;20501;-84
2022/12/24 10:40:03;;;;;;;11.98;6.72;;;;;;;;;;6039777;23;20018;-85
2022/12/24 10:42:38;;;;;;;10.45;5.28;;;;;;;;;;6063343;23;20094;-82
2022/12/24 10:45:05;;;;;;;9.82;5.82;;;;;;;;;;6040179;23;20533;-85
2022/12/24 10:47:32;;;;;;;;;;;;;;;;;;6038812;23;20072;-85
2022/12/24 10:50:12;;;;;;;9.68;4.90;;;;;;;;;;6039869;23;19909;-86
2022/12/24 10:52:39;;;;;;;8.80;5.00;;;;;;;;;;6037317;23;20042;-84
2022/12/24 10:55:10;;;;;;;7.70;4.20;;;;;;;;;;6041041;23;20007;-83
2022/12/24 10:57:36;;;;;;;8.43;4.47;;;;;;;;;;6063331;23;20097;-85
2022/12/24 11:00:02;;;;;;;8.05;3.85;;;;;;;;;;6064148;23;20022;-84
2022/12/24 11:02:32;;;;;;;9.15;4.68;;;;;;;;;;6038766;23;20026;-84
2022/12/24 11:04:59;;;;;;;9.15;3.80;;;;;;;;;;6040247;23;20114;-85
2022/12/24 11:07:25;;;;;;;9.13;4.47;;;;;;;;;;6063507;23;20018;-83
2022/12/24 11:09:54;;;;;;;7.35;3.40;;;;;;;;;;6039816;23;20586;-84
2022/12/24 11:12:32;;;;;;;7.43;3.70;;;;;;;;;;6038959;23;20011;-85
2022/12/24 11:15:11;;;;;;;7.53;4.15;;;;;;;;;;6039211;23;20018;-84
2022/12/24 11:17:37;;;;;;;9.52;4.32;;;;;;;;;;6087026;23;20026;-84
2022/12/24 11:20:02;;;;;;;7.70;3.83;;;;;;;;;;6063354;23;20703;-84
2022/12/24 11:22:31;;;;;;;9.77;4.30;;;;;;;;;;6060526;23;20470;-85
2022/12/24 11:25:17;;;;;;;8.65;3.60;;;;;;;;;;6062394;23;20490;-83
2022/12/24 11:27:48;;;;;;;8.07;4.20;;;;;;;;;;6061129;23;20023;-85
2022/12/24 11:30:13;;;;;;;9.27;4.50;;;;;;;;;;6038563;23;20089;-86
2022/12/24 11:32:41;;;;;;;7.45;4.30;;;;;;;;;;6061435;23;20061;-89
2022/12/24 11:35:20;;;;;;;8.50;4.10;;;;;;;;;;6060864;23;20513;-88
2022/12/24 11:37:46;;;;;;;7.85;4.03;;;;;;;;;;6037542;23;20018;-83
2022/12/24 11:40:20;;;;;;;7.72;4.38;;;;;;;;;;6062681;23;20413;-89
2022/12/24 11:42:52;;;;;;;7.07;3.83;;;;;;;;;;6048554;23;20026;-89
2022/12/24 11:45:30;;;;;;;7.57;4.40;;;;;;;;;;6038886;23;20014;-88
2022/12/24 11:47:56;;;;;;;7.00;3.85;;;;;;;;;;6048650;23;20037;-88
2022/12/24 11:50:30;;;;;;;9.45;3.92;;;;;;;;;;6062117;23;20014;-89
2022/12/24 11:53:01;;;;;;;7.65;4.22;;;;;;;;;;6062082;23;20448;-89
2022/12/24 11:56:01;;;;;;;8.15;4.32;;;;;;;;;;6061860;23;20026;-88
2022/12/24 11:58:58;;;;;;;7.03;3.63;;;;;;;;;;6001212;23;20022;-90
2022/12/24 12:01:35;;;;;;;8.07;4.15;;;;;;;;;;6083031;23;20045;-88
2022/12/24 12:04:09;;;;;;;7.53;4.28;;;;;;;;;;6039782;23;20014;-90
2022/12/24 12:06:51;;;;;;;11.32;4.30;;;;;;;;;;6062098;23;20022;-86
2022/12/24 12:09:21;;;;;;;9.52;4.15;;;;;;;;;;6061938;23;20018;-83
2022/12/24 12:11:51;;;;;;;7.55;4.35;;;;;;;;;;6037744;23;20339;-84
2022/12/24 12:14:22;;;;;;;11.20;4.45;;;;;;;;;;6062630;23;20014;-82
2022/12/24 12:17:06;;;;;;;8.02;3.65;;;;;;;;;;6061662;23;20022;-81
2022/12/24 12:19:59;;;;;;;8.65;4.03;;;;;;;;;;6064074;23;20097;-82
2022/12/24 12:23:01;;;;;;;7.75;3.67;;;;;;;;;;6060894;23;20724;-81
2022/12/24 12:25:45;;;;;;;7.63;3.95;;;;;;;;;;6024755;23;20141;-83
2022/12/24 12:28:50;;;;;;;8.43;3.78;;;;;;;;;;6037935;23;20483;-83
2022/12/24 12:31:38;;;;;;;9.73;3.72;;;;;;;;;;5873867;24;20748;-88
2022/12/24 12:34:37;;;;;;;;;;;;;;;;;;;;;
2022/12/24 12:40:40;;;;;;;9.38;4.80;;;;;;;;;;6073838;23;20109;-87
2022/12/24 12:43:18;;;;;;;6.97;4.13;;;;;;;;;;6023612;23;20478;-86
2022/12/24 12:46:28;;;;;;;10.05;4.20;;;;;;;;;;6057330;23;20022;-85
2022/12/24 12:49:12;;;;;;;8.63;4.32;;;;;;;;;;6038123;23;20522;-85
2022/12/24 12:51:37;;;;;;;9.25;4.63;;;;;;;;;;6048203;23;20025;-88
2022/12/24 12:57:53;;;;;;;9.50;4.28;;;;;;;;;;5946765;23;20018;-87
2022/12/24 13:00:22;;;;;;;10.98;4.15;;;;;;;;;;6017055;23;20018;-87
2022/12/24 13:07:02;;;;;;;;;;;;;;;;;;;;;
2022/12/24 13:16:57;;;;;;;13.73;3.75;;;;;;;;;;5975828;23;20041;-87
2022/12/24 13:19:39;;;;;;;12.32;3.90;;;;;;;;;;5959147;23;20080;-87
2022/12/24 13:22:16;;;;;;;12.73;4.55;;;;;;;;;;5935579;23;20783;-85
2022/12/24 13:24:48;;;;;;;13.70;4.45;;;;;;;;;;5948685;23;20024;-87
2022/12/24 13:27:23;;;;;;;10.18;3.97;;;;;;;;;;5950572;23;20032;-88
2022/12/24 13:29:52;;;;;;;13.38;3.97;;;;;;;;;;5974752;23;20027;-86
2022/12/24 13:32:20;;;;;;;11.18;3.78;;;;;;;;;;5973950;23;20341;-86
2022/12/24 13:34:51;;;;;;;10.18;3.92;;;;;;;;;;5973881;23;20043;-87
2022/12/24 13:37:23;;;;;;;14.93;4.90;;;;;;;;;;5996527;23;20460;-85
2022/12/24 13:40:13;;;;;;;13.65;4.70;;;;;;;;;;5997289;23;20458;-86
2022/12/24 13:42:52;;;;;;;14.75;4.22;;;;;;;;;;6045181;23;20446;-86
2022/12/24 13:45:30;;;;;;;13.85;4.40;;;;;;;;;;6059846;23;20014;-83
2022/12/24 13:47:56;;;;;;;14.25;4.38;;;;;;;;;;6061741;23;20086;-85
2022/12/24 13:50:35;;;;;;;12.90;4.03;;;;;;;;;;6063099;23;20030;-86
2022/12/24 13:53:02;;;;;;;12.65;4.45;;;;;;;;;;6010392;23;20137;-87
2022/12/24 13:55:28;;;;;;;10.27;4.05;;;;;;;;;;6036075;23;20277;-86
2022/12/24 13:57:58;;;;;;;13.95;3.78;;;;;;;;;;6064242;23;20065;-85
2022/12/24 14:00:28;;;;;;;21.65;8.02;;;;;;;;;;5980452;23;20545;-85
2022/12/24 14:03:24;;;;;;;22.38;7.85;;;;;;;;;;6042398;23;20062;-84
2022/12/24 14:06:04;;;;;;;20.48;9.05;;;;;;;;;;6017421;23;20515;-85
2022/12/24 14:08:53;;;;;;;16.00;7.13;;;;;;;;;;5997682;23;20884;-87
2022/12/24 14:11:33;;;;;;;16.90;6.18;;;;;;;;;;5986373;23;20019;-87
2022/12/24 14:14:11;;;;;;;15.68;5.32;;;;;;;;;;6057261;23;20077;-88
2022/12/24 14:16:52;;;;;;;;;;;;;;;;;;6030236;23;20022;-87
2022/12/24 14:19:54;;;;;;;13.63;4.15;;;;;;;;;;6010669;23;19922;-85
2022/12/24 14:22:47;;;;;;;14.20;4.35;;;;;;;;;;6008788;23;20089;-87
2022/12/24 14:25:16;;;;;;;11.20;4.18;;;;;;;;;;6034733;23;20033;-88
2022/12/24 14:27:51;;;;;;;13.20;3.95;;;;;;;;;;6036646;23;20018;-89
2022/12/24 14:30:28;;;;;;;14.93;5.43;;;;;;;;;;6060840;23;20021;-87
2022/12/24 14:32:55;;;;;;;10.70;3.92;;;;;;;;;;5987730;23;20532;-86
2022/12/24 14:35:34;;;;;;;13.27;4.40;;;;;;;;;;6036452;23;20096;-87
2022/12/24 14:38:03;;;;;;;13.55;4.90;;;;;;;;;;6036149;23;20014;-87
2022/12/24 14:40:38;;;;;;;13.60;4.90;;;;;;;;;;6028778;23;20023;-88
2022/12/24 14:43:57;;;;;;;;;;;;;;;;;;;;;
2022/12/24 14:47:02;;;;;;;16.05;5.13;;;;;;;;;;6007731;23;20090;-87
2022/12/24 14:50:12;;;;;;;15.75;5.22;;;;;;;;;;6027006;23;20463;-85
2022/12/24 14:56:31;;;;;;;17.55;6.20;;;;;;;;;;6026103;23;20067;-91
2022/12/24 14:59:49;;;;;;;15.55;5.68;;;;;;;;;;5996441;23;20022;-89
2022/12/24 15:06:08;;;;;;;17.00;5.63;;;;;;;;;;5849777;23;20081;-88
2022/12/24 15:08:52;;;;;;;14.25;6.18;;;;;;;;;;5849714;24;20028;-88
2022/12/24 15:12:07;;;;;;;;;;;;;;;;;;;;;
2022/12/24 15:18:40;;;;;;;14.15;5.75;;;;;;;;;;5807817;24;20262;-87
2022/12/24 15:21:34;;;;;;;16.20;6.05;;;;;;;;;;5846343;24;20022;-88
2022/12/24 15:24:00;;;;;;;14.00;5.70;;;;;;;;;;5902330;24;20017;-87
2022/12/24 15:26:36;;;;;;;11.73;5.88;;;;;;;;;;5932548;24;20031;-84
2022/12/24 15:29:14;;;;;;;11.82;5.35;;;;;;;;;;5947096;24;20020;-86
2022/12/24 15:31:54;;;;;;;15.05;5.47;;;;;;;;;;5929225;23;20108;-89
2022/12/24 15:34:39;;;;;;;10.40;4.90;;;;;;;;;;6035895;23;20054;-88
2022/12/24 15:37:26;;;;;;;11.23;5.50;;;;;;;;;;6068358;23;20407;-91